createdAt,value
2022-10-01T00:00:53.100Z,26.30
2022-10-01T00:04:09.119Z,26.40
2022-10-01T00:07:15.068Z,26.00
2022-10-01T00:10:17.312Z,26.30
2022-10-01T00:13:20.452Z,25.90
2022-10-01T00:16:25.323Z,25.70
2022-10-01T00:19:27.471Z,25.60
2022-10-01T00:22:32.146Z,25.50
2022-10-01T00:25:34.619Z,25.50
2022-10-01T00:28:36.955Z,25.40
2022-10-01T00:31:39.438Z,25.30
2022-10-01T00:34:41.647Z,25.20
2022-10-01T00:37:43.649Z,25.30
2022-10-01T00:40:45.510Z,25.20
2022-10-01T00:43:55.473Z,25.20
2022-10-01T00:47:02.868Z,25.20
2022-10-01T00:50:34.235Z,25.20
2022-10-01T00:53:37.850Z,25.10
2022-10-01T00:56:41.118Z,25.00
2022-10-01T00:59:43.558Z,24.80
2022-10-01T01:02:46.585Z,25.00
2022-10-01T01:05:50.214Z,25.00
2022-10-01T01:08:55.105Z,24.90
2022-10-01T01:12:26.269Z,24.90
2022-10-01T01:15:46.187Z,24.90
2022-10-01T01:19:02.532Z,24.80
2022-10-01T01:22:06.779Z,25.00
2022-10-01T01:25:17.263Z,25.00
2022-10-01T01:28:38.265Z,25.10
2022-10-01T01:31:48.775Z,25.20
2022-10-01T01:34:53.351Z,25.10
2022-10-01T01:38:01.706Z,25.30
2022-10-01T01:41:05.727Z,25.50
2022-10-01T01:44:11.765Z,25.90
2022-10-01T01:47:14.829Z,25.70
2022-10-01T01:50:17.127Z,25.80
2022-10-01T01:53:20.274Z,25.50
2022-10-01T01:56:22.144Z,25.70
2022-10-01T01:59:25.973Z,25.70
2022-10-01T02:02:33.202Z,25.60
2022-10-01T02:05:46.955Z,25.70
2022-10-01T02:09:11.411Z,25.70
2022-10-01T02:12:37.515Z,25.80
2022-10-01T02:16:18.852Z,25.80
2022-10-01T02:19:33.447Z,25.50
2022-10-01T02:22:50.309Z,25.80
2022-10-01T02:25:58.201Z,25.60
2022-10-01T02:29:03.943Z,25.20
2022-10-01T02:32:06.847Z,25.50
2022-10-01T02:35:11.956Z,25.30
2022-10-01T02:38:16.831Z,25.10
2022-10-01T02:41:25.102Z,25.70
2022-10-01T02:44:38.000Z,25.80
2022-10-01T02:47:44.570Z,25.50
2022-10-01T02:50:57.007Z,25.30
2022-10-01T02:54:23.241Z,25.40
2022-10-01T02:57:28.892Z,25.30
2022-10-01T03:00:31.135Z,25.50
2022-10-01T03:03:33.251Z,25.10
2022-10-01T03:06:35.862Z,25.40
2022-10-01T03:09:37.916Z,25.20
2022-10-01T03:12:45.125Z,25.10
2022-10-01T03:15:47.332Z,25.20
2022-10-01T03:18:49.259Z,25.60
2022-10-01T03:21:51.360Z,25.50
2022-10-01T03:24:54.003Z,25.60
2022-10-01T03:27:56.076Z,25.70
2022-10-01T03:31:09.567Z,25.50
2022-10-01T03:34:13.341Z,25.60
2022-10-01T03:37:15.299Z,25.40
2022-10-01T03:40:17.323Z,25.40
2022-10-01T03:43:19.234Z,25.80
2022-10-01T03:46:21.615Z,25.50
2022-10-01T03:49:23.828Z,25.80
2022-10-01T03:52:25.922Z,25.70
2022-10-01T03:55:28.455Z,25.90
2022-10-01T03:58:31.036Z,25.50
2022-10-01T04:01:33.506Z,25.10
2022-10-01T04:04:36.295Z,25.40
2022-10-01T04:07:38.202Z,25.20
2022-10-01T04:10:40.765Z,25.00
2022-10-01T04:13:42.884Z,24.80
2022-10-01T04:16:45.192Z,24.60
2022-10-01T04:19:47.026Z,24.60
2022-10-01T04:22:49.103Z,24.60
2022-10-01T04:25:51.028Z,24.80
2022-10-01T04:28:53.074Z,25.00
2022-10-01T04:31:55.169Z,24.50
2022-10-01T04:34:57.331Z,24.40
2022-10-01T04:38:07.326Z,24.50
2022-10-01T04:41:10.035Z,24.40
2022-10-01T04:44:12.060Z,24.50
2022-10-01T04:47:14.379Z,24.70
2022-10-01T04:50:17.864Z,24.70
2022-10-01T04:53:19.916Z,24.70
2022-10-01T04:56:21.936Z,25.70
2022-10-01T04:59:25.643Z,25.30
2022-10-01T05:02:29.196Z,24.90
2022-10-01T05:05:33.106Z,24.90
2022-10-01T05:08:34.946Z,24.80
2022-10-01T05:11:39.129Z,24.60
2022-10-01T05:14:41.006Z,24.40
2022-10-01T05:17:43.213Z,24.40
2022-10-01T05:20:45.120Z,24.80
2022-10-01T05:23:47.276Z,24.40
2022-10-01T05:26:49.126Z,24.60
2022-10-01T05:29:51.278Z,24.60
2022-10-01T05:33:01.790Z,25.00
2022-10-01T05:36:06.951Z,24.90
2022-10-01T05:39:09.225Z,25.00
2022-10-01T05:42:11.279Z,25.20
2022-10-01T05:45:13.531Z,25.20
2022-10-01T05:48:15.590Z,25.30
2022-10-01T05:51:18.517Z,25.40
2022-10-01T05:54:23.231Z,25.80
2022-10-01T05:57:25.240Z,26.20
2022-10-01T06:00:30.028Z,26.30
2022-10-01T06:03:32.103Z,26.40
2022-10-01T06:06:34.485Z,26.50
2022-10-01T06:09:36.382Z,26.70
2022-10-01T06:12:38.423Z,26.90
2022-10-01T06:15:40.345Z,27.00
2022-10-01T06:18:42.621Z,27.50
2022-10-01T06:21:44.479Z,27.80
2022-10-01T06:24:46.512Z,27.80
2022-10-01T06:27:58.091Z,28.00
2022-10-01T06:31:04.359Z,27.80
2022-10-01T06:34:06.279Z,27.90
2022-10-01T06:37:08.366Z,27.90
2022-10-01T06:40:10.525Z,28.00
2022-10-01T06:43:12.544Z,28.00
2022-10-01T06:46:14.516Z,28.00
2022-10-01T06:49:20.448Z,27.90
2022-10-01T06:52:40.957Z,28.50
2022-10-01T06:55:44.254Z,27.70
2022-10-01T06:58:46.388Z,27.90
2022-10-01T07:01:56.061Z,27.70
2022-10-01T07:05:01.597Z,27.90
2022-10-01T07:08:04.296Z,27.70
2022-10-01T07:11:06.286Z,27.50
2022-10-01T07:14:08.686Z,27.60
2022-10-01T07:17:10.696Z,27.70
2022-10-01T07:20:14.884Z,27.60
2022-10-01T07:23:17.231Z,27.60
2022-10-01T07:26:19.775Z,27.50
2022-10-01T07:29:24.859Z,28.00
2022-10-01T07:32:27.012Z,27.10
2022-10-01T07:35:29.702Z,27.00
2022-10-01T07:38:35.774Z,26.70
2022-10-01T07:41:37.839Z,26.70
2022-10-01T07:44:39.946Z,26.80
2022-10-01T07:47:42.003Z,26.60
2022-10-01T07:50:47.958Z,26.80
2022-10-01T07:53:50.987Z,26.60
2022-10-01T07:56:55.853Z,26.60
2022-10-01T07:59:57.761Z,26.40
2022-10-01T08:03:00.129Z,26.50
2022-10-01T08:06:05.776Z,26.40
2022-10-01T08:09:07.806Z,26.60
2022-10-01T08:12:09.694Z,26.30
2022-10-01T08:15:14.039Z,26.00
2022-10-01T08:18:15.969Z,26.00
2022-10-01T08:21:18.083Z,25.30
2022-10-01T08:24:20.321Z,25.60
2022-10-01T08:27:25.206Z,25.40
2022-10-01T08:30:28.874Z,25.50
2022-10-01T08:33:32.365Z,25.20
2022-10-01T08:36:35.787Z,25.10
2022-10-01T08:39:38.045Z,24.90
2022-10-01T08:43:00.068Z,24.90
2022-10-01T08:46:13.728Z,24.80
2022-10-01T08:49:18.818Z,24.70
2022-10-01T08:52:28.810Z,24.50
2022-10-01T08:55:36.594Z,24.80
2022-10-01T08:58:45.762Z,24.90
2022-10-01T09:01:48.576Z,24.90
2022-10-01T09:05:01.766Z,24.80
2022-10-01T09:08:07.600Z,24.60
2022-10-01T09:11:37.406Z,24.60
2022-10-01T09:15:21.612Z,24.80
2022-10-01T09:18:42.986Z,24.90
2022-10-01T09:22:02.231Z,25.00
2022-10-01T09:25:25.608Z,25.10
2022-10-01T09:28:31.297Z,25.00
2022-10-01T09:31:45.263Z,24.90
2022-10-01T09:34:48.015Z,25.40
2022-10-01T09:37:58.629Z,25.30
2022-10-01T09:41:00.958Z,25.30
2022-10-01T09:44:03.850Z,25.30
2022-10-01T09:47:20.463Z,24.60
2022-10-01T09:50:35.011Z,24.70
2022-10-01T09:53:58.205Z,24.80
2022-10-01T09:57:31.855Z,25.20
2022-10-01T10:00:37.237Z,24.60
2022-10-01T10:03:39.602Z,24.40
2022-10-01T10:06:44.033Z,24.40
2022-10-01T10:09:46.556Z,24.10
2022-10-01T10:12:54.297Z,24.10
2022-10-01T10:16:00.142Z,24.00
2022-10-01T10:19:20.261Z,24.30
2022-10-01T10:22:26.441Z,24.30
2022-10-01T10:25:29.360Z,24.30
2022-10-01T10:28:48.208Z,24.40
2022-10-01T10:31:51.619Z,24.40
2022-10-01T10:35:02.633Z,24.20
2022-10-01T10:38:07.789Z,24.30
2022-10-01T10:41:16.788Z,24.30
2022-10-01T10:44:21.393Z,24.30
2022-10-01T10:47:26.420Z,24.30
2022-10-01T10:50:48.232Z,24.00
2022-10-01T10:54:02.642Z,24.20
2022-10-01T10:57:17.515Z,24.30
2022-10-01T11:00:21.360Z,24.20
2022-10-01T11:03:26.965Z,24.20
2022-10-01T11:06:33.077Z,24.00
2022-10-01T11:09:46.104Z,24.10
2022-10-01T11:13:15.445Z,24.20
2022-10-01T11:16:26.494Z,24.20
2022-10-01T11:19:50.082Z,24.40
2022-10-01T11:23:19.490Z,24.20
2022-10-01T11:26:34.539Z,24.30
2022-10-01T11:29:37.028Z,24.00
2022-10-01T11:32:51.212Z,24.00
2022-10-01T11:36:00.870Z,23.90
2022-10-01T11:39:16.723Z,24.20
2022-10-01T11:42:27.743Z,24.00
2022-10-01T11:45:34.866Z,23.90
2022-10-01T11:48:51.162Z,24.20
2022-10-01T11:52:15.854Z,24.00
2022-10-01T11:55:36.568Z,24.10
2022-10-01T11:58:57.340Z,23.90
2022-10-01T12:02:15.312Z,23.90
2022-10-01T12:05:22.936Z,23.90
2022-10-01T12:08:31.877Z,24.00
2022-10-01T12:12:11.922Z,23.70
2022-10-01T12:15:24.108Z,24.00
2022-10-01T12:18:47.115Z,24.10
2022-10-01T12:21:57.456Z,24.00
2022-10-01T12:24:59.637Z,23.80
2022-10-01T12:28:26.173Z,23.80
2022-10-01T12:32:12.332Z,23.70
2022-10-01T12:35:22.996Z,23.50
2022-10-01T12:38:49.156Z,23.30
2022-10-01T12:42:09.253Z,23.50
2022-10-01T12:45:22.051Z,23.50
2022-10-01T12:48:36.247Z,23.40
2022-10-01T12:52:04.335Z,23.40
2022-10-01T12:55:29.436Z,23.90
2022-10-01T12:58:39.592Z,23.60
2022-10-01T13:02:13.658Z,23.90
2022-10-01T13:05:24.695Z,23.70
2022-10-01T13:08:50.881Z,23.70
2022-10-01T13:12:20.530Z,23.80
2022-10-01T13:15:29.543Z,24.00
2022-10-01T13:19:12.769Z,24.40
2022-10-01T13:22:39.619Z,24.40
2022-10-01T13:25:54.735Z,24.40
2022-10-01T13:29:16.965Z,24.60
2022-10-01T13:32:29.153Z,24.70
2022-10-01T13:35:40.094Z,24.60
2022-10-01T13:38:46.042Z,24.60
2022-10-01T13:41:48.886Z,24.70
2022-10-01T13:44:59.956Z,24.90
2022-10-01T13:48:23.626Z,24.70
2022-10-01T13:51:35.325Z,24.70
2022-10-01T13:54:40.351Z,24.70
2022-10-01T13:57:42.616Z,24.70
2022-10-01T14:00:50.293Z,24.90
2022-10-01T14:04:08.943Z,25.10
2022-10-01T14:07:24.713Z,25.30
2022-10-01T14:10:36.494Z,25.40
2022-10-01T14:14:04.719Z,26.90
2022-10-01T14:17:08.460Z,28.60
2022-10-01T14:20:18.562Z,29.10
2022-10-01T14:23:40.836Z,29.30
2022-10-01T14:26:53.149Z,29.40
2022-10-01T14:30:11.654Z,29.00
2022-10-01T14:33:22.942Z,29.10
2022-10-01T14:36:34.717Z,28.50
2022-10-01T14:39:37.168Z,29.40
2022-10-01T14:42:39.515Z,29.30
2022-10-01T14:46:03.357Z,30.00
2022-10-01T14:49:05.561Z,31.10
2022-10-01T14:52:23.321Z,31.50
2022-10-01T14:55:26.804Z,31.30
2022-10-01T14:58:31.429Z,31.70
2022-10-01T15:01:33.562Z,31.40
2022-10-01T15:04:36.221Z,30.90
2022-10-01T15:07:38.366Z,30.60
2022-10-01T15:11:08.476Z,29.90
2022-10-01T15:14:23.647Z,30.10
2022-10-01T15:17:27.301Z,30.00
2022-10-01T15:20:29.422Z,30.30
2022-10-01T15:23:33.849Z,30.70
2022-10-01T15:26:36.492Z,29.80
2022-10-01T15:29:40.250Z,29.60
2022-10-01T15:32:42.483Z,29.80
2022-10-01T15:35:44.467Z,29.70
2022-10-01T15:38:48.471Z,29.90
2022-10-01T15:41:52.534Z,29.80
2022-10-01T15:45:25.287Z,30.00
2022-10-01T15:48:30.001Z,30.50
2022-10-01T15:51:32.122Z,30.20
2022-10-01T15:54:34.631Z,30.00
2022-10-01T15:57:38.713Z,30.10
2022-10-01T16:00:59.460Z,30.10
2022-10-01T16:04:23.794Z,30.10
2022-10-01T16:07:29.807Z,30.60
2022-10-01T16:10:37.188Z,30.60
2022-10-01T16:13:41.413Z,30.80
2022-10-01T16:16:43.606Z,30.60
2022-10-01T16:19:51.426Z,30.40
2022-10-01T16:23:31.880Z,30.40
2022-10-01T16:26:38.101Z,30.90
2022-10-01T16:29:41.664Z,30.80
2022-10-01T16:32:43.593Z,31.30
2022-10-01T16:35:47.879Z,31.20
2022-10-01T16:38:50.707Z,30.60
2022-10-01T16:42:19.163Z,30.40
2022-10-01T16:45:22.639Z,30.50
2022-10-01T16:48:25.223Z,30.50
2022-10-01T16:51:27.181Z,30.20
2022-10-01T16:54:29.524Z,30.40
2022-10-01T16:57:32.495Z,30.10
2022-10-01T17:00:41.126Z,30.00
2022-10-01T17:03:46.583Z,30.00
2022-10-01T17:06:51.367Z,29.80
2022-10-01T17:09:55.297Z,29.90
2022-10-01T17:12:59.516Z,30.10
2022-10-01T17:16:01.909Z,29.80
2022-10-01T17:19:04.091Z,30.50
2022-10-01T17:22:08.609Z,30.40
2022-10-01T17:25:16.170Z,30.60
2022-10-01T17:28:20.386Z,30.50
2022-10-01T17:31:22.665Z,30.20
2022-10-01T17:34:24.646Z,30.50
2022-10-01T17:37:26.778Z,30.40
2022-10-01T17:40:28.746Z,30.70
2022-10-01T17:43:30.909Z,30.80
2022-10-01T17:46:33.014Z,30.20
2022-10-01T17:49:36.335Z,30.30
2022-10-01T17:52:38.250Z,30.00
2022-10-01T17:55:41.762Z,30.00
2022-10-01T17:58:45.851Z,30.20
2022-10-01T18:01:48.690Z,30.20
2022-10-01T18:04:50.599Z,30.50
2022-10-01T18:07:52.988Z,30.60
2022-10-01T18:11:06.674Z,30.50
2022-10-01T18:14:08.803Z,30.60
2022-10-01T18:17:11.059Z,30.30
2022-10-01T18:20:13.126Z,30.00
2022-10-01T18:23:15.212Z,30.30
2022-10-01T18:26:18.876Z,30.00
2022-10-01T18:29:28.029Z,30.50
2022-10-01T18:32:40.633Z,30.10
2022-10-01T18:35:45.826Z,30.60
2022-10-01T18:38:50.250Z,30.30
2022-10-01T18:41:52.668Z,30.10
2022-10-01T18:45:01.317Z,30.30
2022-10-01T18:48:38.903Z,31.00
2022-10-01T18:52:17.930Z,31.00
2022-10-01T18:55:43.845Z,31.10
2022-10-01T18:59:17.822Z,30.40
2022-10-01T19:03:04.062Z,30.30
2022-10-01T19:06:11.680Z,30.00
2022-10-01T19:09:40.810Z,30.10
2022-10-01T19:13:07.105Z,30.00
2022-10-01T19:16:59.117Z,30.00
2022-10-01T19:20:30.738Z,30.00
2022-10-01T19:23:54.534Z,29.90
2022-10-01T19:27:30.176Z,29.80
2022-10-01T19:30:58.912Z,29.80
2022-10-01T19:34:19.618Z,29.90
2022-10-01T19:37:41.392Z,30.00
2022-10-01T19:40:55.934Z,30.20
2022-10-01T19:44:03.284Z,30.10
2022-10-01T19:47:40.828Z,30.00
2022-10-01T19:50:46.615Z,29.90
2022-10-01T19:54:00.043Z,29.70
2022-10-01T19:57:27.688Z,30.10
2022-10-01T20:00:32.013Z,30.00
2022-10-01T20:03:39.319Z,30.00
2022-10-01T20:06:46.224Z,30.00
2022-10-01T20:10:05.814Z,29.80
2022-10-01T20:13:26.806Z,29.80
2022-10-01T20:16:55.269Z,29.70
2022-10-01T20:20:04.041Z,29.70
2022-10-01T20:23:27.826Z,29.70
2022-10-01T20:26:42.285Z,29.70
2022-10-01T20:29:53.325Z,29.80
2022-10-01T20:32:59.062Z,29.80
2022-10-01T20:36:18.864Z,29.70
2022-10-01T20:39:30.209Z,29.60
2022-10-01T20:42:38.455Z,30.00
2022-10-01T20:45:41.232Z,29.50
2022-10-01T20:48:49.538Z,29.50
2022-10-01T20:52:24.997Z,29.60
2022-10-01T20:55:38.930Z,29.50
2022-10-01T20:58:57.826Z,29.60
2022-10-01T21:02:39.342Z,29.80
2022-10-01T21:05:47.980Z,29.80
2022-10-01T21:12:47.584Z,29.90
2022-10-01T21:16:14.764Z,29.90
2022-10-01T21:19:48.571Z,30.00
2022-10-01T21:23:33.848Z,30.00
2022-10-01T21:27:00.969Z,30.00
2022-10-01T21:30:14.147Z,30.00
2022-10-01T21:33:23.302Z,30.00
2022-10-01T21:36:52.273Z,30.00
2022-10-01T21:40:25.546Z,30.00
2022-10-01T21:43:55.438Z,29.90
2022-10-01T21:47:17.915Z,30.00
2022-10-01T21:50:41.438Z,30.20
2022-10-01T21:54:09.691Z,30.20
2022-10-01T21:57:43.190Z,29.90
2022-10-01T22:00:58.442Z,30.00
2022-10-01T22:04:17.546Z,29.90
2022-10-01T22:07:38.328Z,30.00
2022-10-01T22:10:45.732Z,29.80
2022-10-01T22:13:52.721Z,29.60
2022-10-01T22:17:06.310Z,29.60
2022-10-01T22:20:09.282Z,29.50
2022-10-01T22:23:17.278Z,29.50
2022-10-01T22:26:23.583Z,29.40
2022-10-01T22:29:31.155Z,29.40
2022-10-01T22:33:22.222Z,29.40
2022-10-01T22:36:33.104Z,29.60
2022-10-01T22:39:45.936Z,29.40
2022-10-01T22:42:54.958Z,29.30
2022-10-01T22:46:35.978Z,29.40
2022-10-01T22:49:40.771Z,29.40
2022-10-01T22:53:08.543Z,29.40
2022-10-01T22:56:13.607Z,29.60
2022-10-01T22:59:27.320Z,29.70
2022-10-01T23:02:29.278Z,29.80
2022-10-01T23:05:49.793Z,30.00
2022-10-01T23:09:06.579Z,29.90
2022-10-01T23:12:23.727Z,29.90
2022-10-01T23:15:41.906Z,30.00
2022-10-01T23:19:22.061Z,30.00
2022-10-01T23:22:45.571Z,30.00
2022-10-01T23:26:16.274Z,30.20
2022-10-01T23:29:39.913Z,30.20
2022-10-01T23:32:57.165Z,30.20
2022-10-01T23:36:11.377Z,30.30
2022-10-01T23:39:13.435Z,30.20
2022-10-01T23:42:37.529Z,30.40
2022-10-01T23:45:59.899Z,30.30
2022-10-01T23:49:12.601Z,30.20
2022-10-01T23:52:36.202Z,30.30
2022-10-01T23:56:06.235Z,30.20
2022-10-01T23:59:21.147Z,30.40
